createdAt,value
2022-10-23T00:01:51.088Z,19.42
2022-10-23T00:04:27.726Z,19.98
2022-10-23T00:06:56.321Z,20.02
2022-10-23T00:09:25.028Z,19.23
2022-10-23T00:11:55.436Z,19.38
2022-10-23T00:14:26.228Z,20.27
2022-10-23T00:16:54.746Z,19.42
2022-10-23T00:19:23.262Z,19.45
2022-10-23T00:21:51.726Z,19.80
2022-10-23T00:24:20.294Z,19.48
2022-10-23T00:26:51.050Z,20.55
2022-10-23T00:29:21.237Z,20.30
2022-10-23T00:31:49.686Z,19.77
2022-10-23T00:34:19.651Z,18.90
2022-10-23T00:36:48.242Z,20.33
2022-10-23T00:39:16.803Z,19.35
2022-10-23T00:41:45.679Z,19.08
2022-10-23T00:44:20.337Z,19.42
2022-10-23T00:46:48.933Z,20.00
2022-10-23T00:49:17.767Z,20.50
2022-10-23T00:51:50.899Z,20.58
2022-10-23T00:54:24.862Z,19.98
2022-10-23T00:56:59.799Z,20.88
2022-10-23T00:59:29.749Z,21.20
2022-10-23T01:01:59.252Z,21.65
2022-10-23T01:04:28.677Z,21.83
2022-10-23T01:07:12.263Z,21.98
2022-10-23T01:10:03.680Z,22.52
2022-10-23T01:13:01.043Z,21.48
2022-10-23T01:15:42.201Z,22.45
2022-10-23T01:18:17.210Z,22.95
2022-10-23T01:21:00.591Z,22.17
2022-10-23T01:24:09.354Z,22.15
2022-10-23T01:26:46.869Z,23.48
2022-10-23T01:29:29.879Z,22.83
2022-10-23T01:32:10.130Z,21.63
2022-10-23T01:35:00.921Z,23.52
2022-10-23T01:38:01.441Z,22.58
2022-10-23T01:40:39.834Z,21.55
2022-10-23T01:43:13.919Z,21.90
2022-10-23T01:45:55.456Z,21.20
2022-10-23T01:48:29.896Z,22.05
2022-10-23T01:51:01.913Z,22.20
2022-10-23T01:53:57.494Z,23.95
2022-10-23T01:56:36.216Z,23.02
2022-10-23T01:59:10.852Z,23.70
2022-10-23T02:01:44.255Z,23.83
2022-10-23T02:04:16.774Z,23.05
2022-10-23T02:06:45.245Z,23.17
2022-10-23T02:09:14.412Z,23.13
2022-10-23T02:12:08.045Z,23.67
2022-10-23T02:14:58.094Z,25.48
2022-10-23T02:17:51.079Z,26.23
2022-10-23T02:20:28.357Z,24.48
2022-10-23T02:23:20.717Z,24.98
2022-10-23T02:26:15.986Z,24.75
2022-10-23T02:29:07.942Z,24.35
2022-10-23T02:31:38.194Z,26.15
2022-10-23T02:34:07.074Z,24.40
2022-10-23T02:36:36.197Z,25.42
2022-10-23T02:39:11.678Z,24.98
2022-10-23T02:41:47.077Z,26.42
2022-10-23T02:44:39.973Z,26.50
2022-10-23T02:47:27.421Z,25.35
2022-10-23T02:50:19.043Z,24.95
2022-10-23T02:53:05.455Z,23.80
2022-10-23T02:55:55.632Z,25.95
2022-10-23T02:58:36.455Z,22.65
2022-10-23T03:01:39.118Z,25.55
2022-10-23T03:04:10.869Z,24.55
2022-10-23T03:06:39.732Z,23.80
2022-10-23T03:09:10.060Z,23.95
2022-10-23T03:14:09.076Z,24.00
2022-10-23T03:16:37.420Z,23.15
2022-10-23T03:19:06.461Z,24.45
2022-10-23T03:21:35.278Z,25.08
2022-10-23T03:24:08.120Z,22.33
2022-10-23T03:26:42.053Z,20.98
2022-10-23T03:29:11.802Z,21.85
2022-10-23T03:31:46.145Z,21.50
2022-10-23T03:34:15.280Z,23.38
2022-10-23T03:36:44.377Z,25.98
2022-10-23T03:39:13.390Z,32.95
2022-10-23T03:41:43.659Z,34.88
2022-10-23T03:44:12.277Z,35.60
2022-10-23T03:46:45.920Z,36.45
2022-10-23T03:49:16.928Z,37.28
2022-10-23T03:51:52.060Z,30.77
2022-10-23T03:54:25.179Z,23.77
2022-10-23T03:56:58.912Z,22.83
2022-10-23T03:59:32.643Z,29.02
2022-10-23T04:02:01.644Z,26.13
2022-10-23T04:04:30.409Z,24.98
2022-10-23T04:06:58.859Z,22.05
2022-10-23T04:09:28.149Z,21.80
2022-10-23T04:11:57.784Z,22.10
2022-10-23T04:14:29.341Z,28.35
2022-10-23T04:16:57.684Z,40.63
2022-10-23T04:19:26.697Z,37.42
2022-10-23T04:21:57.925Z,27.50
2022-10-23T04:24:27.158Z,28.20
2022-10-23T04:26:55.659Z,31.40
2022-10-23T04:29:31.680Z,26.40
2022-10-23T04:32:00.245Z,23.30
2022-10-23T04:34:30.354Z,22.98
2022-10-23T04:36:58.760Z,21.55
2022-10-23T04:39:27.397Z,22.55
2022-10-23T04:41:55.743Z,22.63
2022-10-23T04:44:26.884Z,22.00
2022-10-23T04:46:55.308Z,21.95
2022-10-23T04:49:25.540Z,22.58
2022-10-23T04:52:32.096Z,30.23
2022-10-23T04:55:21.704Z,28.20
2022-10-23T04:58:08.599Z,29.92
2022-10-23T05:00:37.680Z,27.55
2022-10-23T05:03:06.192Z,28.40
2022-10-23T05:05:39.430Z,25.58
2022-10-23T05:08:31.978Z,21.10
2022-10-23T05:11:26.306Z,18.90
2022-10-23T05:13:54.757Z,18.55
2022-10-23T05:16:38.090Z,19.13
2022-10-23T05:19:09.943Z,19.10
2022-10-23T05:21:41.655Z,18.67
2022-10-23T05:24:11.886Z,19.35
2022-10-23T05:26:41.112Z,18.40
2022-10-23T05:29:09.843Z,18.45
2022-10-23T05:31:38.703Z,19.00
2022-10-23T05:34:15.743Z,19.00
2022-10-23T05:36:47.399Z,18.35
2022-10-23T05:39:16.983Z,20.02
2022-10-23T05:41:47.353Z,19.90
2022-10-23T05:44:23.540Z,21.08
2022-10-23T05:47:24.760Z,18.48
2022-10-23T05:50:17.725Z,19.00
2022-10-23T05:53:12.555Z,19.88
2022-10-23T05:56:12.339Z,20.58
2022-10-23T05:58:55.178Z,18.85
2022-10-23T06:01:43.663Z,19.30
2022-10-23T06:04:16.777Z,19.10
2022-10-23T06:07:08.005Z,19.73
2022-10-23T06:09:37.804Z,20.38
2022-10-23T06:12:06.294Z,19.52
2022-10-23T06:14:36.152Z,18.45
2022-10-23T06:17:05.091Z,18.80
2022-10-23T06:20:01.984Z,18.15
2022-10-23T06:22:35.290Z,17.65
2022-10-23T06:25:18.723Z,17.98
2022-10-23T06:27:47.414Z,20.25
2022-10-23T06:30:16.561Z,21.77
2022-10-23T06:32:48.234Z,24.88
2022-10-23T06:35:17.574Z,22.25
2022-10-23T06:37:46.057Z,20.40
2022-10-23T06:40:19.918Z,19.92
2022-10-23T06:43:06.718Z,20.55
2022-10-23T06:46:08.140Z,19.95
2022-10-23T06:48:54.905Z,19.85
2022-10-23T06:51:29.915Z,21.13
2022-10-23T06:53:58.971Z,20.02
2022-10-23T06:56:51.453Z,19.67
2022-10-23T06:59:24.468Z,19.23
2022-10-23T07:04:29.171Z,17.73
2022-10-23T07:07:01.015Z,18.30
2022-10-23T07:09:38.660Z,17.95
2022-10-23T07:12:29.596Z,29.15
2022-10-23T07:15:17.184Z,21.50
2022-10-23T07:17:45.768Z,21.20
2022-10-23T07:20:17.036Z,19.92
2022-10-23T07:22:52.613Z,21.02
2022-10-23T07:25:26.987Z,18.90
2022-10-23T07:27:56.927Z,20.10
2022-10-23T07:30:27.423Z,20.27
2022-10-23T07:32:57.484Z,18.52
2022-10-23T07:35:34.306Z,19.10
2022-10-23T07:38:09.665Z,18.35
2022-10-23T07:40:42.871Z,17.80
2022-10-23T07:43:18.770Z,18.58
2022-10-23T07:45:50.992Z,19.23
2022-10-23T07:48:34.855Z,18.13
2022-10-23T07:51:10.899Z,19.08
2022-10-23T07:56:26.727Z,17.55
2022-10-23T07:59:14.856Z,19.27
2022-10-23T08:01:51.438Z,41.42
2022-10-23T08:04:23.551Z,22.42
2022-10-23T08:07:01.306Z,19.45
2022-10-23T08:09:34.701Z,18.77
2022-10-23T08:12:05.524Z,20.33
2022-10-23T08:14:35.428Z,20.63
2022-10-23T08:17:13.326Z,18.20
2022-10-23T08:20:15.227Z,20.23
2022-10-23T08:23:10.948Z,20.05
2022-10-23T08:26:20.378Z,20.88
2022-10-23T08:29:12.786Z,19.08
2022-10-23T08:31:50.972Z,21.55
2022-10-23T08:34:31.818Z,20.73
2022-10-23T08:38:20.553Z,20.08
2022-10-23T08:40:37.669Z,19.40
2022-10-23T08:43:45.705Z,19.27
2022-10-23T08:46:38.400Z,19.08
2022-10-23T08:49:35.758Z,19.50
2022-10-23T08:52:44.964Z,19.03
2022-10-23T08:55:22.828Z,19.90
2022-10-23T08:58:01.787Z,18.50
2022-10-23T09:00:30.554Z,20.50
2022-10-23T09:03:09.561Z,19.15
2022-10-23T09:06:30.632Z,19.88
2022-10-23T09:17:33.180Z,18.52
2022-10-23T09:20:26.637Z,18.15
2022-10-23T09:23:18.157Z,18.50
2022-10-23T09:25:48.153Z,19.05
2022-10-23T09:28:22.534Z,18.77
2022-10-23T09:30:52.365Z,19.58
2022-10-23T09:33:30.139Z,21.13
2022-10-23T09:35:59.974Z,22.65
2022-10-23T09:38:54.287Z,24.15
2022-10-23T09:41:28.820Z,20.33
2022-10-23T09:44:21.703Z,21.15
2022-10-23T09:46:56.477Z,20.50
2022-10-23T09:49:33.913Z,18.55
2022-10-23T09:52:14.311Z,18.85
2022-10-23T09:54:50.718Z,19.25
2022-10-23T09:57:40.800Z,19.23
2022-10-23T10:00:18.070Z,19.25
2022-10-23T10:03:01.919Z,18.17
2022-10-23T10:05:46.878Z,18.17
2022-10-23T10:09:36.221Z,15.80
2022-10-23T10:12:34.772Z,16.15
2022-10-23T10:15:53.165Z,19.58
2022-10-23T10:18:51.586Z,16.90
2022-10-23T10:21:36.355Z,17.83
2022-10-23T10:24:45.034Z,17.50
2022-10-23T10:36:30.500Z,16.55
2022-10-23T10:39:56.661Z,16.80
2022-10-23T10:43:14.269Z,17.80
2022-10-23T10:52:57.489Z,17.10
2022-10-23T10:55:48.406Z,13.95
2022-10-23T10:58:33.220Z,14.70
2022-10-23T11:05:38.073Z,14.40
2022-10-23T11:08:28.949Z,13.60
2022-10-23T11:11:04.615Z,13.98
2022-10-23T11:13:42.760Z,13.13
2022-10-23T11:20:29.988Z,13.88
2022-10-23T11:23:36.096Z,15.30
2022-10-23T11:27:06.488Z,14.68
2022-10-23T11:38:15.123Z,14.23
2022-10-23T11:40:54.257Z,14.52
2022-10-23T11:47:43.536Z,14.40
2022-10-23T11:50:34.752Z,14.95
2022-10-23T11:53:42.677Z,16.77
2022-10-23T11:56:12.837Z,14.75
2022-10-23T12:07:47.129Z,13.90
2022-10-23T12:36:44.478Z,12.40
2022-10-23T12:39:33.581Z,12.90
2022-10-23T12:42:23.474Z,12.68
2022-10-23T12:45:20.751Z,12.15
2022-10-23T12:48:00.247Z,15.43
2022-10-23T12:50:35.939Z,12.80
2022-10-23T12:53:08.586Z,14.13
2022-10-23T12:58:56.914Z,15.50
2022-10-23T13:01:54.563Z,12.07
2022-10-23T13:04:35.449Z,12.05
2022-10-23T13:07:04.579Z,13.23
2022-10-23T13:09:36.445Z,12.60
2022-10-23T13:12:38.859Z,12.68
2022-10-23T13:15:07.637Z,12.52
2022-10-23T13:17:46.288Z,13.00
2022-10-23T13:20:18.081Z,13.52
2022-10-23T13:22:57.731Z,13.80
2022-10-23T13:25:35.147Z,14.52
2022-10-23T13:28:19.098Z,14.35
2022-10-23T13:30:59.923Z,15.57
2022-10-23T13:33:37.469Z,15.60
2022-10-23T13:36:21.793Z,14.65
2022-10-23T13:39:00.033Z,13.38
2022-10-23T13:41:35.967Z,13.50
2022-10-23T13:44:04.724Z,13.05
2022-10-23T13:46:33.548Z,12.85
2022-10-23T13:49:02.730Z,12.48
2022-10-23T13:51:38.820Z,11.98
2022-10-23T13:54:22.896Z,11.73
2022-10-23T13:56:52.152Z,12.27
2022-10-23T13:59:21.523Z,12.02
2022-10-23T14:01:50.971Z,12.38
2022-10-23T14:04:20.357Z,12.10
2022-10-23T14:06:49.818Z,12.70
2022-10-23T14:09:19.052Z,11.45
2022-10-23T14:11:48.188Z,10.82
2022-10-23T14:14:16.992Z,10.30
2022-10-23T14:16:45.518Z,10.65
2022-10-23T14:19:14.274Z,11.05
2022-10-23T14:21:42.716Z,13.15
2022-10-23T14:24:11.372Z,11.10
2022-10-23T14:26:39.800Z,11.98
2022-10-23T14:29:10.843Z,12.13
2022-10-23T14:31:42.349Z,12.65
2022-10-23T14:34:11.137Z,11.82
2022-10-23T14:36:50.450Z,11.05
2022-10-23T14:39:25.426Z,10.82
2022-10-23T14:41:53.846Z,10.15
2022-10-23T14:44:25.545Z,9.48
2022-10-23T14:54:00.376Z,11.15
2022-10-23T14:56:29.732Z,11.02
2022-10-23T14:59:06.371Z,11.45
2022-10-23T15:01:45.922Z,11.93
2022-10-23T15:09:24.183Z,13.00
2022-10-23T15:39:23.385Z,25.48
2022-10-23T16:49:51.814Z,127.93
2022-10-23T16:52:23.627Z,129.57
2022-10-23T16:54:56.018Z,134.88
2022-10-23T16:57:36.945Z,115.35
2022-10-23T17:00:08.628Z,100.65
2022-10-23T17:02:46.753Z,101.57
2022-10-23T17:05:20.550Z,95.75
2022-10-23T17:25:51.278Z,110.20
2022-10-23T17:28:46.064Z,103.57
2022-10-23T17:36:35.244Z,90.00
2022-10-23T17:39:13.573Z,85.95
2022-10-23T17:42:43.706Z,94.18
2022-10-23T18:08:14.462Z,91.57
2022-10-23T18:45:54.742Z,226.55
2022-10-23T18:48:29.216Z,196.60
2022-10-23T18:51:18.349Z,198.20
2022-10-23T18:53:51.739Z,201.60
2022-10-23T18:56:34.463Z,207.77
2022-10-23T18:59:30.931Z,226.68
2022-10-23T19:02:02.854Z,212.52
2022-10-23T19:04:51.796Z,216.50
2022-10-23T19:17:18.231Z,175.73
2022-10-23T19:20:43.393Z,166.27
2022-10-23T19:48:29.368Z,105.53
2022-10-23T20:02:55.293Z,95.70
2022-10-23T20:05:29.182Z,102.80
2022-10-23T20:08:03.135Z,102.53
2022-10-23T20:14:34.412Z,78.82
2022-10-23T20:17:03.875Z,64.90
2022-10-23T20:19:32.689Z,61.78
2022-10-23T20:22:01.888Z,60.83
2022-10-23T20:24:30.835Z,62.95
2022-10-23T20:26:59.777Z,58.58
2022-10-23T20:29:28.209Z,48.10
2022-10-23T20:32:22.779Z,49.00
2022-10-23T20:38:24.693Z,112.57
2022-10-23T20:41:21.200Z,134.02
2022-10-23T20:46:45.796Z,93.97
2022-10-23T20:49:15.066Z,74.47
2022-10-23T20:52:37.672Z,66.78
2022-10-23T20:55:06.765Z,51.95
2022-10-23T20:57:35.832Z,54.75
2022-10-23T21:00:06.035Z,53.50
2022-10-23T21:02:37.955Z,65.05
2022-10-23T21:05:07.144Z,62.17
2022-10-23T21:07:39.137Z,55.20
2022-10-23T21:10:08.353Z,54.50
2022-10-23T21:12:36.884Z,46.92
2022-10-23T21:15:06.485Z,49.50
2022-10-23T21:17:39.197Z,44.72
2022-10-23T21:20:09.348Z,42.42
2022-10-23T21:22:37.863Z,38.55
2022-10-23T21:25:07.137Z,38.58
2022-10-23T21:27:35.676Z,33.70
2022-10-23T21:30:06.456Z,33.65
2022-10-23T21:32:35.101Z,34.22
2022-10-23T21:35:08.018Z,37.15
2022-10-23T21:37:36.520Z,34.80
2022-10-23T21:40:06.923Z,37.35
2022-10-23T21:42:35.274Z,35.20
2022-10-23T21:45:04.251Z,36.15
2022-10-23T21:47:34.106Z,35.03
2022-10-23T21:50:03.191Z,33.70
2022-10-23T21:52:31.699Z,33.80
2022-10-23T21:55:01.670Z,33.63
2022-10-23T21:57:34.192Z,32.90
2022-10-23T22:00:05.582Z,32.28
2022-10-23T22:05:23.440Z,32.88
2022-10-23T22:07:52.005Z,36.55
2022-10-23T22:10:45.799Z,35.97
2022-10-23T22:13:24.241Z,38.38
2022-10-23T22:15:53.179Z,35.28
2022-10-23T22:18:21.613Z,35.72
2022-10-23T22:20:50.333Z,37.33
2022-10-23T22:23:18.842Z,35.22
2022-10-23T22:25:47.935Z,36.22
2022-10-23T22:28:16.307Z,39.38
2022-10-23T22:30:46.271Z,39.65
2022-10-23T22:33:18.214Z,40.63
2022-10-23T22:35:46.940Z,38.05
2022-10-23T22:38:49.849Z,37.95
2022-10-23T22:41:44.811Z,37.58
2022-10-23T22:44:18.632Z,39.05
2022-10-23T22:46:47.840Z,40.00
2022-10-23T22:49:16.975Z,41.08
2022-10-23T22:51:46.275Z,42.15
2022-10-23T22:54:14.782Z,44.42
2022-10-23T22:56:43.620Z,39.38
2022-10-23T22:59:12.013Z,39.50
2022-10-23T23:01:44.684Z,39.38
2022-10-23T23:04:37.683Z,40.38
2022-10-23T23:07:09.761Z,39.45
2022-10-23T23:09:44.331Z,40.63
2022-10-23T23:15:08.126Z,37.83
2022-10-23T23:17:37.005Z,35.88
2022-10-23T23:20:06.038Z,35.15
2022-10-23T23:22:59.780Z,36.28
2022-10-23T23:25:28.285Z,40.65
2022-10-23T23:27:57.960Z,40.67
2022-10-23T23:30:29.488Z,38.55
2022-10-23T23:32:58.297Z,39.47
2022-10-23T23:35:29.727Z,37.35
2022-10-23T23:37:58.384Z,39.10
2022-10-23T23:40:27.267Z,42.78
2022-10-23T23:42:56.304Z,45.05
2022-10-23T23:45:25.137Z,45.55
2022-10-23T23:47:53.852Z,47.47
2022-10-23T23:50:22.353Z,45.83
2022-10-23T23:52:52.253Z,48.70
2022-10-23T23:55:20.635Z,45.38
2022-10-23T23:57:49.386Z,43.75
